Thursday, January 18, 2018, 10:57 PM EST
Back to Local

KMLT, Millinocket Municipal Airport

Location: Millinocket, ME, United States Lat: 45.65
Local Time: 10:57 PM EST ( 3:57 GMT) Lon: -68.7
Time Zone: US/Eastern Elev: 406 ft

Show me the last for .
Show Decoded

2018-01-18 21:53 METAR KMLT 190253Z AUTO 00000KT 7SM CLR M10/M12 A2987 RMK AO2 SLP126 T11001117
                 51018 =
2018-01-18 20:53 METAR KMLT 190153Z AUTO 11003KT 8SM FEW030 M09/M11 A2986 RMK AO2 SLP123
                 T10941106 =
2018-01-18 19:53 METAR KMLT 190053Z AUTO 30004KT 10SM CLR M06/M09 A2983 RMK AO2 SLP114 T10561089
                 =
2018-01-18 18:53 METAR KMLT 182353Z AUTO 29008KT 10SM CLR M04/M09 A2981 RMK AO2 SLP107 60000
                 T10441089 11022 21050 53006 =
2018-01-18 17:53 METAR KMLT 182253Z AUTO 29009KT 9SM CLR M04/M09 A2982 RMK AO2 SLP108 T10441089 =
2018-01-18 16:53 METAR KMLT 182153Z AUTO 29011G18KT 10SM CLR M04/M09 A2978 RMK AO2 SLP096
                 T10391089 =
2018-01-18 15:53 METAR KMLT 182053Z AUTO 30008G18KT 10SM CLR M03/M09 A2980 RMK AO2 SLP101 60000
                 T10331089 56005 =
2018-01-18 14:53 METAR KMLT 181953Z AUTO 31009KT 10SM CLR M02/M08 A2980 RMK AO2 SLP101 T10221083
                 =
2018-01-18 13:53 METAR KMLT 181853Z AUTO 31011KT 10SM FEW030 M02/M08 A2980 RMK AO2 UPE1757 SLP102
                 P0000 T10221083 =
2018-01-18 12:53 METAR KMLT 181753Z AUTO 28014G21KT 9SM UP FEW029 M02/M09 A2981 RMK AO2 UPB47
                 SLP105 P0000 60000 T10221094 11022 21089 56025 =
2018-01-18 11:53 METAR KMLT 181653Z AUTO 29007KT 10SM FEW032 OVC038 M03/M09 A2983 RMK AO2 SLP112
                 T10331094 =
2018-01-18 10:53 METAR KMLT 181553Z AUTO 29006KT 10SM BKN041 M03/M10 A2986 RMK AO2 SLP121
                 T10331100 =
2018-01-18 09:53 METAR KMLT 181453Z AUTO VRB06KT 10SM OVC039 M05/M11 A2988 RMK AO2 SLP132
                 T10501106 55002 =
2018-01-18 08:53 METAR KMLT 181353Z AUTO 26005KT 9SM OVC034 M07/M11 A2988 RMK AO2 SLP131
                 T10671111 =
2018-01-18 07:53 METAR KMLT 181253Z AUTO VRB05KT 10SM SCT027 BKN032 M07/M12 A2989 RMK AO2 SLP133
                 T10721117 =
2018-01-18 06:53 METAR KMLT 181153Z AUTO 25004KT 10SM CLR M08/M12 A2989 RMK AO2 SLP134 T10781117
                 11056 21083 55006 =
2018-01-18 05:53 METAR KMLT 181053Z AUTO 28005KT 10SM CLR M07/M11 A2989 RMK AO2 SLP133 T10721111
                 =
2018-01-18 04:53 METAR KMLT 180953Z AUTO VRB05KT 10SM CLR M07/M10 A2989 RMK AO2 SLP132 T10721100
                 =
2018-01-18 03:53 METAR KMLT 180853Z AUTO 28005KT 10SM OVC037 M06/M08 A2991 RMK AO2 SLP141
                 T10611078 58014 =
2018-01-18 02:53 METAR KMLT 180753Z AUTO 30005KT 10SM OVC041 M06/M07 A2993 RMK AO2 SLP146
                 T10561072 =
2018-01-18 01:53 METAR KMLT 180653Z AUTO 29003KT 10SM BKN044 OVC060 M07/M08 A2995 RMK AO2 SLP153
                 T10671078 =
2018-01-18 00:53 METAR KMLT 180553Z AUTO 00000KT 10SM OVC060 M07/M07 A2995 RMK AO2 SNE03 SLP154
                 P0000 60000 T10671072 11056 21067 58024 =
2018-01-17 23:53 METAR KMLT 180453Z AUTO 00000KT 4SM -SN BR OVC040 M06/M07 A2999 RMK AO2 SNB46
                 SLP166 P0000 T10611067 410441117 =

Support USWX by starting your Amazon purchase here.